createdAt,value
2022-10-11T00:01:34.685Z,94.81
2022-10-11T00:04:01.282Z,94.68
2022-10-11T00:06:27.670Z,94.74
2022-10-11T00:08:54.057Z,94.76
2022-10-11T00:11:20.453Z,94.90
2022-10-11T00:13:46.821Z,95.02
2022-10-11T00:16:15.241Z,95.00
2022-10-11T00:18:42.225Z,95.25
2022-10-11T00:21:13.063Z,95.07
2022-10-11T00:23:40.888Z,95.71
2022-10-11T00:26:09.386Z,95.69
2022-10-11T00:28:36.783Z,96.01
2022-10-11T00:31:08.015Z,95.92
2022-10-11T00:33:34.935Z,96.11
2022-10-11T00:36:02.187Z,95.97
2022-10-11T00:38:31.611Z,96.03
2022-10-11T00:40:58.400Z,96.01
2022-10-11T00:43:27.754Z,96.08
2022-10-11T00:45:57.268Z,96.03
2022-10-11T00:48:29.450Z,95.88
2022-10-11T00:51:00.029Z,95.95
2022-10-11T00:53:30.305Z,95.58
2022-10-11T00:56:06.986Z,95.66
2022-10-11T00:58:36.235Z,95.78
2022-10-11T01:01:03.308Z,95.66
2022-10-11T01:03:31.480Z,95.53
2022-10-11T01:05:57.910Z,95.53
2022-10-11T01:08:24.813Z,95.39
2022-10-11T01:10:52.053Z,95.23
2022-10-11T01:13:31.510Z,95.30
2022-10-11T01:16:11.373Z,95.41
2022-10-11T01:19:17.362Z,95.75
2022-10-11T01:21:50.463Z,95.34
2022-10-11T01:24:16.779Z,95.51
2022-10-11T01:27:01.858Z,95.21
2022-10-11T01:29:46.308Z,95.85
2022-10-11T01:32:17.513Z,95.74
2022-10-11T01:34:46.549Z,95.38
2022-10-11T01:37:34.310Z,95.41
2022-10-11T01:40:17.019Z,95.37
2022-10-11T01:42:44.042Z,95.85
2022-10-11T01:45:15.598Z,95.54
2022-10-11T01:47:42.566Z,96.08
2022-10-11T01:50:49.189Z,95.95
2022-10-11T01:53:40.066Z,96.18
2022-10-11T01:56:12.397Z,96.55
2022-10-11T01:58:51.362Z,96.95
2022-10-11T02:01:33.558Z,97.01
2022-10-11T02:04:06.503Z,97.00
2022-10-11T02:06:38.015Z,97.15
2022-10-11T02:09:27.441Z,96.61
2022-10-11T02:12:00.270Z,97.27
2022-10-11T02:14:32.338Z,96.97
2022-10-11T02:17:07.720Z,96.98
2022-10-11T02:19:47.379Z,97.35
2022-10-11T02:22:20.409Z,97.46
2022-10-11T02:24:51.610Z,97.45
2022-10-11T02:27:20.918Z,97.70
2022-10-11T02:29:49.798Z,97.38
2022-10-11T02:32:17.497Z,98.04
2022-10-11T02:35:02.902Z,98.02
2022-10-11T02:37:44.454Z,98.05
2022-10-11T02:40:21.431Z,98.30
2022-10-11T02:43:17.495Z,98.27
2022-10-11T02:45:49.674Z,98.40
2022-10-11T02:48:16.684Z,98.80
2022-10-11T02:50:43.718Z,98.79
2022-10-11T02:53:10.421Z,98.96
2022-10-11T02:55:36.929Z,98.56
2022-10-11T02:58:03.749Z,99.10
2022-10-11T03:00:30.477Z,98.99
2022-10-11T03:02:56.914Z,99.36
2022-10-11T03:05:23.297Z,99.65
2022-10-11T03:07:49.697Z,99.51
2022-10-11T03:10:16.259Z,99.65
2022-10-11T03:12:42.794Z,99.58
2022-10-11T03:15:09.640Z,99.42
2022-10-11T03:17:37.134Z,100.00
2022-10-11T03:20:05.377Z,99.57
2022-10-11T03:22:31.746Z,99.73
2022-10-11T03:25:02.712Z,99.71
2022-10-11T03:27:30.339Z,99.99
2022-10-11T03:29:57.012Z,100.00
2022-10-11T03:32:23.421Z,99.99
2022-10-11T03:34:49.776Z,99.92
2022-10-11T03:37:16.499Z,99.85
2022-10-11T03:39:42.953Z,99.94
2022-10-11T03:42:09.319Z,100.00
2022-10-11T03:44:35.704Z,100.00
2022-10-11T03:47:02.095Z,100.00
2022-10-11T03:49:28.454Z,100.00
2022-10-11T03:51:54.865Z,100.00
2022-10-11T03:54:21.414Z,100.00
2022-10-11T03:56:47.807Z,100.00
2022-10-11T03:59:14.233Z,100.00
2022-10-11T04:01:40.662Z,100.00
2022-10-11T04:04:07.072Z,100.00
2022-10-11T04:06:33.521Z,100.00
2022-10-11T04:09:00.243Z,100.00
2022-10-11T04:11:26.978Z,99.77
2022-10-11T04:13:53.526Z,100.00
2022-10-11T04:16:19.901Z,100.00
2022-10-11T04:18:46.282Z,100.00
2022-10-11T04:21:12.745Z,100.00
2022-10-11T04:23:39.107Z,100.00
2022-10-11T04:26:07.442Z,100.00
2022-10-11T04:28:34.874Z,99.98
2022-10-11T04:31:01.373Z,99.90
2022-10-11T04:33:27.760Z,99.77
2022-10-11T04:35:55.455Z,100.00
2022-10-11T04:38:22.405Z,100.00
2022-10-11T04:40:48.853Z,100.00
2022-10-11T04:43:16.677Z,100.00
2022-10-11T04:45:43.522Z,100.00
2022-10-11T04:48:10.108Z,100.00
2022-10-11T04:50:37.189Z,99.82
2022-10-11T04:53:07.286Z,100.00
2022-10-11T04:55:33.642Z,100.00
2022-10-11T04:58:00.207Z,100.00
2022-10-11T05:00:27.412Z,100.00
2022-10-11T05:02:54.052Z,100.00
2022-10-11T05:05:20.460Z,100.00
2022-10-11T05:07:46.857Z,99.80
2022-10-11T05:10:13.266Z,100.00
2022-10-11T05:12:39.661Z,99.53
2022-10-11T05:15:06.982Z,99.85
2022-10-11T05:17:33.689Z,99.72
2022-10-11T05:20:00.063Z,99.77
2022-10-11T05:22:26.452Z,99.93
2022-10-11T05:24:52.859Z,99.42
2022-10-11T05:27:19.360Z,99.61
2022-10-11T05:29:45.782Z,99.46
2022-10-11T05:32:12.173Z,99.48
2022-10-11T05:34:38.519Z,99.75
2022-10-11T05:37:04.982Z,100.00
2022-10-11T05:39:32.271Z,99.97
2022-10-11T05:41:58.677Z,99.98
2022-10-11T05:44:25.189Z,99.89
2022-10-11T05:46:51.617Z,100.00
2022-10-11T05:49:17.962Z,100.00
2022-10-11T05:51:44.334Z,99.82
2022-10-11T05:54:10.715Z,100.00
2022-10-11T05:56:37.255Z,100.00
2022-10-11T05:59:05.046Z,99.78
2022-10-11T06:01:32.062Z,99.66
2022-10-11T06:03:58.520Z,99.75
2022-10-11T06:06:24.960Z,99.53
2022-10-11T06:08:51.380Z,99.76
2022-10-11T06:11:20.888Z,99.26
2022-10-11T06:13:47.605Z,99.51
2022-10-11T06:16:14.518Z,99.25
2022-10-11T06:18:40.948Z,99.32
2022-10-11T06:21:07.437Z,99.10
2022-10-11T06:23:33.934Z,99.39
2022-10-11T06:26:03.332Z,98.95
2022-10-11T06:28:30.119Z,98.73
2022-10-11T06:30:57.229Z,98.81
2022-10-11T06:33:24.507Z,98.70
2022-10-11T06:35:57.717Z,98.64
2022-10-11T06:38:24.120Z,98.83
2022-10-11T06:40:50.622Z,98.91
2022-10-11T06:43:17.031Z,98.79
2022-10-11T06:45:43.429Z,98.79
2022-10-11T06:48:09.874Z,98.72
2022-10-11T06:50:58.618Z,98.43
2022-10-11T06:53:24.784Z,98.25
2022-10-11T06:55:51.197Z,98.25
2022-10-11T06:58:17.693Z,97.42
2022-10-11T07:00:44.194Z,97.39
2022-10-11T07:03:10.598Z,97.49
2022-10-11T07:05:37.015Z,97.33
2022-10-11T07:08:03.538Z,97.09
2022-10-11T07:10:29.905Z,97.19
2022-10-11T07:12:56.266Z,97.35
2022-10-11T07:15:22.880Z,97.10
2022-10-11T07:17:49.266Z,96.86
2022-10-11T07:20:15.644Z,96.87
2022-10-11T07:22:42.042Z,96.79
2022-10-11T07:25:08.712Z,96.70
2022-10-11T07:27:35.081Z,96.67
2022-10-11T07:30:01.550Z,96.73
2022-10-11T07:32:27.913Z,96.62
2022-10-11T07:34:54.343Z,96.38
2022-10-11T07:37:20.717Z,96.34
2022-10-11T07:39:49.037Z,95.95
2022-10-11T07:42:15.417Z,95.86
2022-10-11T07:44:41.882Z,95.77
2022-10-11T07:47:11.286Z,95.73
2022-10-11T07:49:38.107Z,95.19
2022-10-11T07:52:04.901Z,95.17
2022-10-11T07:54:32.681Z,94.63
2022-10-11T07:56:59.204Z,94.54
2022-10-11T07:59:25.605Z,93.81
2022-10-11T08:01:51.997Z,93.65
2022-10-11T08:04:18.431Z,93.41
2022-10-11T08:06:44.823Z,93.23
2022-10-11T08:09:12.138Z,93.06
2022-10-11T08:11:39.306Z,92.72
2022-10-11T08:14:08.890Z,92.01
2022-10-11T08:16:36.596Z,92.04
2022-10-11T08:19:03.322Z,91.93
2022-10-11T08:21:30.499Z,91.81
2022-10-11T08:23:57.029Z,91.53
2022-10-11T08:26:24.485Z,91.05
2022-10-11T08:28:50.908Z,91.29
2022-10-11T08:31:17.392Z,91.04
2022-10-11T08:33:44.390Z,90.80
2022-10-11T08:36:11.645Z,90.83
2022-10-11T08:38:38.856Z,90.80
2022-10-11T08:41:19.016Z,90.59
2022-10-11T08:43:58.160Z,90.27
2022-10-11T08:46:33.519Z,90.76
2022-10-11T08:49:01.317Z,90.56
2022-10-11T08:51:35.613Z,90.23
2022-10-11T08:54:21.225Z,90.79
2022-10-11T08:56:48.454Z,90.77
2022-10-11T08:59:30.605Z,90.53
2022-10-11T09:02:49.331Z,90.59
2022-10-11T09:05:18.951Z,90.70
2022-10-11T09:08:00.230Z,90.41
2022-10-11T09:10:35.916Z,90.44
2022-10-11T09:13:30.976Z,90.13
2022-10-11T09:16:18.736Z,89.98
2022-10-11T09:19:00.497Z,89.98
2022-10-11T09:21:59.341Z,89.36
2022-10-11T09:24:53.554Z,89.53
2022-10-11T09:27:57.329Z,89.28
2022-10-11T09:30:18.133Z,88.86
2022-10-11T09:32:51.134Z,89.02
2022-10-11T09:35:20.422Z,88.63
2022-10-11T09:37:55.639Z,88.56
2022-10-11T09:40:40.265Z,88.54
2022-10-11T09:43:09.142Z,88.95
2022-10-11T09:45:35.605Z,89.01
2022-10-11T09:48:05.337Z,89.23
2022-10-11T09:50:32.840Z,89.53
2022-10-11T09:53:03.153Z,89.59
2022-10-11T09:55:40.757Z,89.02
2022-10-11T09:58:35.245Z,89.17
2022-10-11T10:01:11.177Z,89.22
2022-10-11T10:03:42.820Z,89.10
2022-10-11T10:06:16.507Z,89.00
2022-10-11T10:08:45.354Z,88.67
2022-10-11T10:11:12.257Z,88.46
2022-10-11T10:13:47.792Z,88.63
2022-10-11T10:16:21.949Z,88.22
2022-10-11T10:19:05.544Z,87.72
2022-10-11T10:21:35.639Z,87.38
2022-10-11T10:24:08.668Z,87.35
2022-10-11T10:26:35.218Z,86.52
2022-10-11T10:29:10.347Z,85.41
2022-10-11T10:32:12.993Z,85.14
2022-10-11T10:34:37.179Z,83.84
2022-10-11T10:37:15.515Z,82.99
2022-10-11T10:39:46.832Z,82.97
2022-10-11T10:42:18.843Z,82.83
2022-10-11T10:44:52.965Z,82.48
2022-10-11T10:47:54.621Z,82.48
2022-10-11T10:50:59.092Z,82.58
2022-10-11T10:53:39.856Z,82.50
2022-10-11T10:56:12.236Z,82.64
2022-10-11T10:59:04.914Z,83.29
2022-10-11T11:01:47.539Z,82.95
2022-10-11T11:04:31.485Z,83.04
2022-10-11T11:07:10.281Z,82.88
2022-10-11T11:10:00.484Z,82.72
2022-10-11T11:12:45.902Z,82.22
2022-10-11T11:15:31.306Z,81.95
2022-10-11T11:18:25.827Z,81.75
2022-10-11T11:21:41.696Z,81.70
2022-10-11T11:24:31.098Z,82.04
2022-10-11T11:27:16.965Z,82.14
2022-10-11T11:30:08.302Z,82.24
2022-10-11T11:32:57.957Z,81.90
2022-10-11T11:35:30.799Z,82.16
2022-10-11T11:38:33.863Z,82.13
2022-10-11T11:41:09.130Z,81.91
2022-10-11T11:43:39.780Z,82.03
2022-10-11T11:46:17.649Z,81.91
2022-10-11T11:48:44.478Z,81.72
2022-10-11T11:51:30.669Z,82.15
2022-10-11T11:54:09.951Z,81.44
2022-10-11T11:56:54.409Z,80.84
2022-10-11T11:59:26.015Z,80.44
2022-10-11T12:02:12.857Z,80.47
2022-10-11T12:04:43.873Z,80.46
2022-10-11T12:07:17.784Z,80.60
2022-10-11T12:09:50.573Z,80.89
2022-10-11T12:12:28.962Z,80.00
2022-10-11T12:15:05.283Z,80.03
2022-10-11T12:17:32.085Z,80.00
2022-10-11T12:20:09.684Z,80.18
2022-10-11T12:23:00.459Z,80.18
2022-10-11T12:25:26.828Z,80.30
2022-10-11T12:27:56.628Z,80.38
2022-10-11T12:30:46.925Z,79.48
2022-10-11T12:33:23.905Z,79.49
2022-10-11T12:35:53.343Z,79.95
2022-10-11T12:38:29.652Z,80.56
2022-10-11T12:41:21.488Z,80.49
2022-10-11T12:43:47.857Z,80.38
2022-10-11T12:46:57.484Z,80.96
2022-10-11T12:49:42.251Z,80.50
2022-10-11T12:52:22.785Z,79.78
2022-10-11T12:55:07.796Z,79.69
2022-10-11T12:58:08.640Z,79.15
2022-10-11T13:01:04.188Z,79.03
2022-10-11T13:03:35.163Z,78.65
2022-10-11T13:06:12.270Z,78.29
2022-10-11T13:08:43.140Z,78.28
2022-10-11T13:11:16.966Z,78.40
2022-10-11T13:14:10.966Z,78.75
2022-10-11T13:17:06.567Z,79.01
2022-10-11T13:19:36.301Z,79.21
2022-10-11T13:22:13.763Z,79.18
2022-10-11T13:24:41.172Z,79.23
2022-10-11T13:27:08.027Z,79.29
2022-10-11T13:29:44.808Z,79.05
2022-10-11T13:32:16.307Z,78.68
2022-10-11T13:34:46.931Z,78.82
2022-10-11T13:37:19.116Z,78.90
2022-10-11T13:39:47.018Z,78.79
2022-10-11T13:42:15.774Z,78.61
2022-10-11T13:44:43.960Z,78.73
2022-10-11T13:47:14.440Z,78.59
2022-10-11T13:49:46.512Z,79.10
2022-10-11T13:52:22.397Z,79.39
2022-10-11T13:55:04.049Z,79.73
2022-10-11T13:57:49.643Z,79.38
2022-10-11T14:00:17.139Z,79.27
2022-10-11T14:02:49.739Z,79.39
2022-10-11T14:05:26.537Z,78.90
2022-10-11T14:07:53.354Z,79.11
2022-10-11T14:10:22.065Z,79.40
2022-10-11T14:13:05.250Z,79.99
2022-10-11T14:15:36.797Z,79.95
2022-10-11T14:18:38.262Z,80.00
2022-10-11T14:21:33.205Z,80.56
2022-10-11T14:24:02.689Z,81.06
2022-10-11T14:26:36.283Z,81.22
2022-10-11T14:29:07.985Z,81.17
2022-10-11T14:31:41.500Z,81.28
2022-10-11T14:34:13.666Z,81.22
2022-10-11T14:36:40.086Z,81.45
2022-10-11T14:39:13.515Z,81.74
2022-10-11T14:41:41.163Z,81.86
2022-10-11T14:44:07.536Z,81.93
2022-10-11T14:46:35.910Z,82.20
2022-10-11T14:49:02.350Z,82.33
2022-10-11T14:51:34.421Z,82.59
2022-10-11T14:54:00.814Z,82.84
2022-10-11T14:56:27.229Z,82.94
2022-10-11T14:58:54.650Z,83.13
2022-10-11T15:01:21.382Z,83.37
2022-10-11T15:03:47.917Z,83.43
2022-10-11T15:06:21.675Z,83.70
2022-10-11T15:08:48.153Z,83.54
2022-10-11T15:11:17.783Z,83.86
2022-10-11T15:13:44.822Z,83.79
2022-10-11T15:16:13.210Z,84.16
2022-10-11T15:18:39.699Z,84.53
2022-10-11T15:21:06.359Z,84.56
2022-10-11T15:23:33.330Z,84.73
2022-10-11T15:25:59.729Z,84.69
2022-10-11T15:28:31.305Z,84.38
2022-10-11T15:30:58.390Z,84.33
2022-10-11T15:33:25.635Z,84.31
2022-10-11T15:35:52.351Z,84.45
2022-10-11T15:38:21.401Z,84.55
2022-10-11T15:40:49.273Z,84.58
2022-10-11T15:43:18.763Z,84.65
2022-10-11T15:45:47.629Z,84.68
2022-10-11T15:48:16.028Z,84.95
2022-10-11T15:50:42.521Z,84.90
2022-10-11T15:53:21.063Z,84.97
2022-10-11T15:55:53.085Z,85.18
2022-10-11T15:58:24.956Z,85.04
2022-10-11T16:00:54.278Z,85.53
2022-10-11T16:03:22.840Z,85.28
2022-10-11T16:05:49.300Z,85.73
2022-10-11T16:08:16.071Z,85.70
2022-10-11T16:10:42.918Z,85.56
2022-10-11T16:13:10.688Z,85.84
2022-10-11T16:15:38.657Z,85.91
2022-10-11T16:18:06.237Z,85.95
2022-10-11T16:20:32.820Z,86.02
2022-10-11T16:22:59.477Z,85.75
2022-10-11T16:25:25.922Z,85.85
2022-10-11T16:27:52.326Z,85.56
2022-10-11T16:30:19.268Z,85.92
2022-10-11T16:32:45.915Z,85.76
2022-10-11T16:35:13.985Z,85.73
2022-10-11T16:37:40.613Z,85.96
2022-10-11T16:40:08.843Z,85.88
2022-10-11T16:42:35.375Z,86.04
2022-10-11T16:45:01.752Z,86.27
2022-10-11T16:47:28.110Z,86.52
2022-10-11T16:49:54.552Z,86.38
2022-10-11T16:52:21.120Z,86.27
2022-10-11T16:54:48.370Z,86.34
2022-10-11T16:57:17.138Z,86.67
2022-10-11T16:59:43.936Z,86.77
2022-10-11T17:02:32.078Z,86.65
2022-10-11T17:04:59.046Z,86.83
2022-10-11T17:07:25.862Z,86.66
2022-10-11T17:09:52.317Z,87.06
2022-10-11T17:12:22.405Z,87.08
2022-10-11T17:14:49.966Z,87.34
2022-10-11T17:17:17.778Z,87.15
2022-10-11T17:19:45.572Z,87.34
2022-10-11T17:22:15.090Z,87.19
2022-10-11T17:24:41.773Z,87.17
2022-10-11T17:27:08.420Z,87.38
2022-10-11T17:29:35.008Z,87.73
2022-10-11T17:32:01.629Z,87.52
2022-10-11T17:34:29.214Z,87.94
2022-10-11T17:36:55.668Z,87.93
2022-10-11T17:39:23.556Z,87.56
2022-10-11T17:41:50.310Z,87.74
2022-10-11T17:44:17.976Z,87.76
2022-10-11T17:46:45.041Z,88.04
2022-10-11T17:49:11.900Z,87.99
2022-10-11T17:51:39.734Z,88.04
2022-10-11T17:54:06.657Z,88.25
2022-10-11T17:56:37.711Z,88.31
2022-10-11T17:59:04.589Z,88.33
2022-10-11T18:01:31.257Z,88.60
2022-10-11T18:04:00.136Z,88.94
2022-10-11T18:06:30.500Z,89.08
2022-10-11T18:09:00.815Z,89.46
2022-10-11T18:11:27.354Z,88.95
2022-10-11T18:13:54.136Z,89.68
2022-10-11T18:16:24.132Z,89.68
2022-10-11T18:18:50.537Z,89.55
2022-10-11T18:21:18.649Z,89.60
2022-10-11T18:23:45.798Z,89.78
2022-10-11T18:26:15.715Z,89.80
2022-10-11T18:28:43.225Z,89.75
2022-10-11T18:31:21.416Z,90.01
2022-10-11T18:33:50.639Z,89.91
2022-10-11T18:36:20.161Z,89.97
2022-10-11T18:38:48.948Z,90.33
2022-10-11T18:41:18.331Z,90.24
2022-10-11T18:43:49.987Z,90.40
2022-10-11T18:46:16.441Z,90.12
2022-10-11T18:48:44.526Z,90.53
2022-10-11T18:51:14.876Z,90.25
2022-10-11T18:53:41.576Z,90.67
2022-10-11T18:56:10.295Z,91.20
2022-10-11T18:58:37.355Z,90.74
2022-10-11T19:01:18.657Z,91.26
2022-10-11T19:03:45.817Z,90.66
2022-10-11T19:06:17.657Z,90.89
2022-10-11T19:08:45.975Z,91.14
2022-10-11T19:11:13.358Z,91.72
2022-10-11T19:13:40.209Z,91.33
2022-10-11T19:16:09.308Z,91.73
2022-10-11T19:18:39.366Z,92.01
2022-10-11T19:21:12.560Z,91.68
2022-10-11T19:23:42.185Z,91.71
2022-10-11T19:26:14.078Z,91.91
2022-10-11T19:28:41.121Z,91.77
2022-10-11T19:31:10.152Z,91.90
2022-10-11T19:33:36.869Z,91.69
2022-10-11T19:36:05.671Z,91.46
2022-10-11T19:38:34.209Z,91.50
2022-10-11T19:41:02.080Z,91.21
2022-10-11T19:43:28.442Z,91.50
2022-10-11T19:46:07.484Z,91.49
2022-10-11T19:48:37.529Z,91.49
2022-10-11T19:51:09.313Z,91.38
2022-10-11T19:53:36.481Z,91.77
2022-10-11T19:56:08.476Z,91.55
2022-10-11T19:58:34.841Z,91.72
2022-10-11T20:01:02.353Z,92.00
2022-10-11T20:03:28.891Z,91.82
2022-10-11T20:05:55.476Z,91.79
2022-10-11T20:08:23.169Z,91.92
2022-10-11T20:10:49.537Z,91.81
2022-10-11T20:13:15.931Z,91.95
2022-10-11T20:15:42.323Z,92.09
2022-10-11T20:18:09.065Z,91.96
2022-10-11T20:20:35.495Z,92.24
2022-10-11T20:23:01.864Z,92.48
2022-10-11T20:25:28.246Z,92.63
2022-10-11T20:27:54.668Z,92.24
2022-10-11T20:30:21.111Z,92.61
2022-10-11T20:32:47.472Z,93.04
2022-10-11T20:35:13.894Z,93.04
2022-10-11T20:37:40.252Z,92.85
2022-10-11T20:40:07.162Z,93.18
2022-10-11T20:42:33.521Z,92.70
2022-10-11T20:44:59.946Z,93.06
2022-10-11T20:47:26.301Z,93.20
2022-10-11T20:49:52.648Z,92.79
2022-10-11T20:52:19.007Z,93.15
2022-10-11T20:54:45.407Z,93.13
2022-10-11T20:57:11.845Z,93.04
2022-10-11T20:59:38.291Z,92.73
2022-10-11T21:02:05.185Z,92.76
2022-10-11T21:04:31.552Z,92.81
2022-10-11T21:06:57.964Z,92.99
2022-10-11T21:09:24.366Z,92.68
2022-10-11T21:11:50.732Z,93.00
2022-10-11T21:14:17.232Z,92.65
2022-10-11T21:16:43.734Z,92.72
2022-10-11T21:19:13.286Z,92.59
2022-10-11T21:21:39.722Z,92.60
2022-10-11T21:24:06.385Z,92.80
2022-10-11T21:26:32.924Z,92.73
2022-10-11T21:28:59.452Z,93.18
2022-10-11T21:31:29.738Z,93.20
2022-10-11T21:34:00.253Z,93.18
2022-10-11T21:36:26.854Z,93.20
2022-10-11T21:38:53.486Z,93.66
2022-10-11T21:41:22.362Z,93.74
2022-10-11T21:43:49.377Z,93.77
2022-10-11T21:46:20.455Z,93.34
2022-10-11T21:48:49.788Z,93.40
2022-10-11T21:51:24.744Z,93.33
2022-10-11T21:53:51.791Z,93.72
2022-10-11T21:56:18.761Z,93.47
2022-10-11T21:58:48.912Z,93.60
2022-10-11T22:01:16.455Z,93.28
2022-10-11T22:03:43.251Z,93.46
2022-10-11T22:06:10.039Z,93.42
2022-10-11T22:08:36.575Z,93.30
2022-10-11T22:11:03.478Z,93.42
2022-10-11T22:13:31.628Z,93.44
2022-10-11T22:16:00.935Z,93.19
2022-10-11T22:18:30.898Z,92.88
2022-10-11T22:21:15.020Z,93.30
2022-10-11T22:23:44.263Z,93.30
2022-10-11T22:26:25.772Z,93.14
2022-10-11T22:28:53.259Z,92.96
2022-10-11T22:31:20.584Z,93.13
2022-10-11T22:33:47.286Z,93.18
2022-10-11T22:36:16.735Z,93.34
2022-10-11T22:38:44.006Z,93.90
2022-10-11T22:41:10.884Z,93.45
2022-10-11T22:43:37.369Z,93.79
2022-10-11T22:46:05.075Z,93.45
2022-10-11T22:48:31.705Z,93.34
2022-10-11T22:50:58.078Z,93.52
2022-10-11T22:53:24.428Z,93.69
2022-10-11T22:55:50.965Z,93.74
2022-10-11T22:58:17.377Z,93.40
2022-10-11T23:00:43.810Z,93.75
2022-10-11T23:03:14.439Z,93.68
2022-10-11T23:05:41.088Z,93.16
2022-10-11T23:08:09.369Z,93.60
2022-10-11T23:10:39.920Z,93.94
2022-10-11T23:13:06.400Z,93.75
2022-10-11T23:15:32.848Z,93.45
2022-10-11T23:17:59.304Z,93.96
2022-10-11T23:20:25.672Z,93.67
2022-10-11T23:22:52.125Z,93.94
2022-10-11T23:25:18.488Z,93.79
2022-10-11T23:27:44.902Z,93.91
2022-10-11T23:30:12.236Z,93.52
2022-10-11T23:32:38.597Z,93.54
2022-10-11T23:35:05.876Z,93.59
2022-10-11T23:37:32.245Z,93.57
2022-10-11T23:39:58.732Z,94.06
2022-10-11T23:42:25.077Z,94.46
2022-10-11T23:44:52.857Z,93.90
2022-10-11T23:47:19.290Z,94.53
2022-10-11T23:49:45.705Z,94.01
2022-10-11T23:52:12.077Z,94.04
2022-10-11T23:54:38.451Z,94.47
2022-10-11T23:57:04.905Z,94.18
2022-10-11T23:59:31.329Z,93.65
